Gracefield, Canada
Current Conditions -  °F | °C
As of 7:00 AM on Monday 22 Dec 2014 (Local Time) from CYND Reporting Station
Overcast Overcast  
Wind Chill:   Ceiling: 800
Heat Index: 18°   Visibility: 12mi
Dew Point: 16°   Wind: 8mph
Humidity: 93%   Direction: 100°E
Pressure: 30.4"   Gusts: NA
Location:  46.09°N, 76.05°W
Report Text: CYND 221200Z 10007KT 12SM OVC008 M08/M09 A3040 RMK SF8 SLP300
Loading
Personal Weather Stations






























Interactive Weather Map New forecast layout! Learn more

10-Day Weather Forecast

Advertisements
Track Severe Weather on mobile